Aeroporto :
LOGIN :

Iscrizione | Disclaimer

   EN    FR    IT 

 










Sommario :    VFR   VFR Marginale   IFR   IFR Intensivo   IFR Molto Intensivo
Visibilità : 
Base nubi : 
>= 8 km
>= 3000ft
5 / 8 km
1000 / 3000 ft
1500m / 5 km
500 / 1000 ft
800 / 1500m
200 / 500 ft
< 800m
< 200 ft
Simboli :   Temporali  Nebbia  Neve Forte  Precipitazioni Forti  Vento > 20 kt
SIGMETs :   Varie  Temporali  Ghiacco  Turbolenza  Onda orograficha  Ceneri Vulcaniche







- Altitudine del aeroporto : 49 ft
- Codice IATA : SEN
- Carte del aeroporto


EGMC - Southend

ULTIMO METAR :
  • 231750Z 26007KT CAVOK 12/07 Q1028

METARs OBSOLETI :
  • 231720Z 26006KT CAVOK 13/07 Q1027
  • 231650Z 28010KT 250V320 CAVOK 14/08 Q1027
  • 231620Z 29010KT 260V320 CAVOK 15/08 Q1027
  • 231550Z 27007KT 230V320 CAVOK 15/08 Q1027
  • 231520Z 29010KT 250V320 CAVOK 15/08 Q1027

TAF TAF EGMC
Valido dal 23 a 18 ore il 24 a 03 ore UTC


231659Z 2318/2403 29009KT CAVOK
PROB30
TEMPO 2321/2403 BKN010
Nessun NOTAM noto per questo aeroporto.
2 SIGMETs conosciuti per la FIR London (EGTT) :
 
Turbolenza severa
EGTT SIGMET 08 VALID 231400/231800 EGRR
EGTT LONDON FIR SEV TURB FCST WI N5400 W00200 - N5500 W00300 - N5500 E00500 - N5400 E00409 - N5400 W00200 SFC/FL060 STNR WKN=
Forte onda orograficha
EGTT SIGMET 07 VALID 231400/231800 EGRR
EGTT LONDON FIR SEV MTW FCST WI N5500 E00100 - N5400 E00045 - N5400 W00245 - N5500 W00530 - N5500 E00100 FL030/220 STNR NC=



MetMap, La meteo Aeronautica in un colpo d'occhio ! - Copyright ORBIFLY Dicembre 2007 - Disclaimer

ORBIFLY MET'MAP TEAM :

Programmazione e sviluppo : Alexandra Zaïnal
Concezione e sviluppo : Baudouin d'Aumeries
Co-Programmazione e sviluppo : Marc-Olivier Méhu
Supporto tecnico e logistico : Manuel Goepfert
Aiuto per la traduzione : Arnaldo La Scala

Contatto : metmap@orbifly.com




FONTI E CREDITI :

   NOAA